createdAt,value
2022-09-14T00:01:24.216Z,5.20
2022-09-14T00:03:52.957Z,7.57
2022-09-14T00:06:19.397Z,4.72
2022-09-14T00:08:49.158Z,9.48
2022-09-14T00:11:15.581Z,5.22
2022-09-14T00:13:42.723Z,5.40
2022-09-14T00:16:15.540Z,5.82
2022-09-14T00:18:42.324Z,6.90
2022-09-14T00:21:09.594Z,8.30
2022-09-14T00:23:37.244Z,7.85
2022-09-14T00:26:08.424Z,7.05
2022-09-14T00:28:39.098Z,6.30
2022-09-14T00:31:06.337Z,5.90
2022-09-14T00:33:34.114Z,6.95
2022-09-14T00:36:04.654Z,5.78
2022-09-14T00:38:30.993Z,6.50
2022-09-14T00:40:58.440Z,5.88
2022-09-14T00:43:25.121Z,6.25
2022-09-14T00:45:51.611Z,7.00
2022-09-14T00:48:18.328Z,3.63
2022-09-14T00:50:45.393Z,5.75
2022-09-14T00:53:11.702Z,7.22
2022-09-14T00:55:38.089Z,8.27
2022-09-14T00:58:04.468Z,5.57
2022-09-14T01:00:31.041Z,5.05
2022-09-14T01:02:57.722Z,5.13
2022-09-14T01:05:29.997Z,7.22
2022-09-14T01:08:08.793Z,9.45
2022-09-14T01:10:50.464Z,8.13
2022-09-14T01:13:17.366Z,7.65
2022-09-14T01:15:43.677Z,5.28
2022-09-14T01:18:16.204Z,2.92
2022-09-14T01:20:54.849Z,4.78
2022-09-14T01:23:38.804Z,4.93
2022-09-14T01:26:08.309Z,7.70
2022-09-14T01:28:50.081Z,7.88
2022-09-14T01:31:20.308Z,5.70
2022-09-14T01:34:10.249Z,5.18
2022-09-14T01:36:38.970Z,5.88
2022-09-14T01:39:05.884Z,6.80
2022-09-14T01:41:33.886Z,7.25
2022-09-14T01:44:08.270Z,7.53
2022-09-14T01:46:43.157Z,7.05
2022-09-14T01:49:32.108Z,6.53
2022-09-14T01:52:00.961Z,6.55
2022-09-14T01:54:32.011Z,4.15
2022-09-14T01:57:01.311Z,7.10
2022-09-14T01:59:31.606Z,9.00
2022-09-14T02:02:02.826Z,8.75
2022-09-14T02:04:34.257Z,6.25
2022-09-14T02:07:00.660Z,6.05
2022-09-14T02:09:27.164Z,5.63
2022-09-14T02:11:54.867Z,4.40
2022-09-14T02:14:22.341Z,3.00
2022-09-14T02:16:48.754Z,4.18
2022-09-14T02:19:15.232Z,6.57
2022-09-14T02:21:41.629Z,6.28
2022-09-14T02:24:08.989Z,4.00
2022-09-14T02:26:35.362Z,3.88
2022-09-14T02:29:01.751Z,6.30
2022-09-14T02:31:34.512Z,7.78
2022-09-14T02:34:10.937Z,3.22
2022-09-14T02:36:46.359Z,5.43
2022-09-14T02:39:19.629Z,4.53
2022-09-14T02:42:00.200Z,5.43
2022-09-14T02:44:35.161Z,6.53
2022-09-14T02:47:10.529Z,7.30
2022-09-14T02:49:57.121Z,3.85
2022-09-14T02:52:56.089Z,5.88
2022-09-14T02:55:24.126Z,7.35
2022-09-14T02:57:59.374Z,7.90
2022-09-14T03:00:26.495Z,7.55
2022-09-14T03:02:53.190Z,9.20
2022-09-14T03:05:19.602Z,6.65
2022-09-14T03:07:46.096Z,5.50
2022-09-14T03:10:12.605Z,7.10
2022-09-14T03:12:38.997Z,9.00
2022-09-14T03:15:06.232Z,6.30
2022-09-14T03:17:32.629Z,6.70
2022-09-14T03:19:59.010Z,7.10
2022-09-14T03:22:25.404Z,7.15
2022-09-14T03:24:51.857Z,7.10
2022-09-14T03:27:18.181Z,8.20
2022-09-14T03:29:44.606Z,4.47
2022-09-14T03:32:12.157Z,6.65
2022-09-14T03:34:38.601Z,7.93
2022-09-14T03:37:04.958Z,8.80
2022-09-14T03:39:31.368Z,7.38
2022-09-14T03:41:57.700Z,6.35
2022-09-14T03:44:24.144Z,6.97
2022-09-14T03:46:50.575Z,6.00
2022-09-14T03:49:16.989Z,9.00
2022-09-14T03:51:43.319Z,9.32
2022-09-14T03:54:09.654Z,7.07
2022-09-14T03:56:35.995Z,6.57
2022-09-14T03:59:02.434Z,6.43
2022-09-14T04:01:28.780Z,5.70
2022-09-14T04:03:55.408Z,7.47
2022-09-14T04:06:22.109Z,8.07
2022-09-14T04:08:48.574Z,6.53
2022-09-14T04:11:17.389Z,7.97
2022-09-14T04:13:44.251Z,10.05
2022-09-14T04:16:10.691Z,9.25
2022-09-14T04:18:37.117Z,5.47
2022-09-14T04:21:08.285Z,8.40
2022-09-14T04:23:42.271Z,7.53
2022-09-14T04:26:18.725Z,8.15
2022-09-14T04:28:45.138Z,6.45
2022-09-14T04:31:12.086Z,5.60
2022-09-14T04:33:39.154Z,7.90
2022-09-14T04:36:05.711Z,9.80
2022-09-14T04:38:32.720Z,8.70
2022-09-14T04:40:59.516Z,7.22
2022-09-14T04:43:26.348Z,8.93
2022-09-14T04:45:53.000Z,4.57
2022-09-14T04:48:19.450Z,5.82
2022-09-14T04:50:45.778Z,5.47
2022-09-14T04:53:12.214Z,5.60
2022-09-14T04:55:38.543Z,5.95
2022-09-14T04:58:05.079Z,4.65
2022-09-14T05:00:33.132Z,5.43
2022-09-14T05:02:59.636Z,4.18
2022-09-14T05:05:26.115Z,3.45
2022-09-14T05:07:52.437Z,6.57
2022-09-14T05:10:19.321Z,5.47
2022-09-14T05:12:45.742Z,4.88
2022-09-14T05:15:12.058Z,4.95
2022-09-14T05:17:38.468Z,1.63
2022-09-14T05:20:05.109Z,4.72
2022-09-14T05:22:31.449Z,4.57
2022-09-14T05:24:57.775Z,3.05
2022-09-14T05:27:24.215Z,4.43
2022-09-14T05:29:50.545Z,4.72
2022-09-14T05:32:16.998Z,4.32
2022-09-14T05:34:43.296Z,6.53
2022-09-14T05:37:11.406Z,4.18
2022-09-14T05:39:37.812Z,4.07
2022-09-14T05:42:04.229Z,5.72
2022-09-14T05:44:30.605Z,4.20
2022-09-14T05:46:57.013Z,5.22
2022-09-14T05:49:25.173Z,5.80
2022-09-14T05:51:51.510Z,2.75
2022-09-14T05:54:18.006Z,4.85
2022-09-14T05:56:44.402Z,3.47
2022-09-14T05:59:10.893Z,8.65
2022-09-14T06:01:37.532Z,3.78
2022-09-14T06:04:03.996Z,2.85
2022-09-14T06:06:31.322Z,5.07
2022-09-14T06:08:57.973Z,3.75
2022-09-14T06:11:28.701Z,6.38
2022-09-14T06:13:55.537Z,5.03
2022-09-14T06:16:22.937Z,3.88
2022-09-14T06:18:49.573Z,8.00
2022-09-14T06:21:17.553Z,4.65
2022-09-14T06:23:44.347Z,4.78
2022-09-14T06:26:11.197Z,3.67
2022-09-14T06:28:37.680Z,4.72
2022-09-14T06:31:04.515Z,3.92
2022-09-14T06:33:31.208Z,5.22
2022-09-14T06:35:59.055Z,4.18
2022-09-14T06:38:26.134Z,4.93
2022-09-14T06:40:56.896Z,9.07
2022-09-14T06:43:24.276Z,4.10
2022-09-14T06:45:56.693Z,5.47
2022-09-14T06:48:23.208Z,4.07
2022-09-14T06:50:49.825Z,4.40
2022-09-14T06:53:16.139Z,5.57
2022-09-14T06:55:44.639Z,4.32
2022-09-14T06:58:11.153Z,6.18
2022-09-14T07:00:37.634Z,5.05
2022-09-14T07:03:04.090Z,6.78
2022-09-14T07:05:30.983Z,5.88
2022-09-14T07:07:57.697Z,5.22
2022-09-14T07:10:27.936Z,6.13
2022-09-14T07:12:54.830Z,10.38
2022-09-14T07:15:21.877Z,8.52
2022-09-14T07:17:48.235Z,6.18
2022-09-14T07:20:15.564Z,6.53
2022-09-14T07:22:42.158Z,5.95
2022-09-14T07:25:09.466Z,6.53
2022-09-14T07:27:38.604Z,8.77
2022-09-14T07:30:06.289Z,4.75
2022-09-14T07:32:32.585Z,5.63
2022-09-14T07:34:59.001Z,5.43
2022-09-14T07:37:25.306Z,6.50
2022-09-14T07:39:51.672Z,6.22
2022-09-14T07:42:18.107Z,6.07
2022-09-14T07:44:44.441Z,8.18
2022-09-14T07:47:10.746Z,5.95
2022-09-14T07:49:37.117Z,5.05
2022-09-14T07:52:03.426Z,10.15
2022-09-14T07:54:29.721Z,10.05
2022-09-14T07:56:56.055Z,4.25
2022-09-14T07:59:38.237Z,3.67
2022-09-14T08:02:06.041Z,8.07
2022-09-14T08:04:33.529Z,7.95
2022-09-14T08:07:02.003Z,5.47
2022-09-14T08:09:28.343Z,6.20
2022-09-14T08:11:54.623Z,4.63
2022-09-14T08:14:20.970Z,5.97
2022-09-14T08:16:47.312Z,7.07
2022-09-14T08:19:16.480Z,8.45
2022-09-14T08:21:46.912Z,6.45
2022-09-14T08:24:15.460Z,7.97
2022-09-14T08:26:42.083Z,7.18
2022-09-14T08:29:08.716Z,5.70
2022-09-14T08:31:38.897Z,11.07
2022-09-14T08:34:05.544Z,7.07
2022-09-14T08:36:36.332Z,5.00
2022-09-14T08:39:03.020Z,7.32
2022-09-14T08:41:31.720Z,6.20
2022-09-14T08:44:10.220Z,7.43
2022-09-14T08:46:39.213Z,6.78
2022-09-14T08:49:11.929Z,4.60
2022-09-14T08:51:38.382Z,4.55
2022-09-14T08:54:04.714Z,6.55
2022-09-14T08:56:38.204Z,4.68
2022-09-14T08:59:34.109Z,4.32
2022-09-14T09:02:06.975Z,5.88
2022-09-14T09:04:36.355Z,8.57
2022-09-14T09:07:14.119Z,8.38
2022-09-14T09:09:45.103Z,6.78
2022-09-14T09:12:19.250Z,5.78
2022-09-14T09:14:48.397Z,2.90
2022-09-14T09:17:17.389Z,5.13
2022-09-14T09:19:53.497Z,6.57
2022-09-14T09:22:22.431Z,6.55
2022-09-14T09:24:54.009Z,3.72
2022-09-14T09:27:20.888Z,6.80
2022-09-14T09:29:47.294Z,4.97
2022-09-14T09:32:18.168Z,8.23
2022-09-14T09:34:44.631Z,8.15
2022-09-14T09:37:23.649Z,7.07
2022-09-14T09:39:50.230Z,5.80
2022-09-14T09:42:24.380Z,6.05
2022-09-14T09:45:02.575Z,6.10
2022-09-14T09:47:30.157Z,6.28
2022-09-14T09:49:58.348Z,6.78
2022-09-14T09:52:24.696Z,4.90
2022-09-14T09:54:52.189Z,5.75
2022-09-14T09:57:23.420Z,7.07
2022-09-14T09:59:50.056Z,3.13
2022-09-14T10:02:30.670Z,4.70
2022-09-14T10:05:01.599Z,5.43
2022-09-14T10:07:28.702Z,7.10
2022-09-14T10:10:03.606Z,3.88
2022-09-14T10:12:30.081Z,6.00
2022-09-14T10:15:05.066Z,5.47
2022-09-14T10:17:31.397Z,4.22
2022-09-14T10:19:58.226Z,4.13
2022-09-14T10:22:29.574Z,6.30
2022-09-14T10:25:00.661Z,3.63
2022-09-14T10:27:37.010Z,6.22
2022-09-14T10:30:04.596Z,4.10
2022-09-14T10:32:31.708Z,6.85
2022-09-14T10:34:58.766Z,4.50
2022-09-14T10:37:43.809Z,6.30
2022-09-14T10:40:15.709Z,7.32
2022-09-14T10:42:53.362Z,7.10
2022-09-14T10:45:31.356Z,4.28
2022-09-14T10:48:07.196Z,4.78
2022-09-14T10:50:41.077Z,5.95
2022-09-14T10:53:22.785Z,4.25
2022-09-14T10:55:56.674Z,4.22
2022-09-14T10:58:27.453Z,2.67
2022-09-14T11:00:56.493Z,3.40
2022-09-14T11:03:28.129Z,4.47
2022-09-14T11:06:01.090Z,5.28
2022-09-14T11:08:31.978Z,7.10
2022-09-14T11:10:58.429Z,4.25
2022-09-14T11:13:27.846Z,5.03
2022-09-14T11:16:08.376Z,7.63
2022-09-14T11:18:40.712Z,3.20
2022-09-14T11:21:13.442Z,5.68
2022-09-14T11:23:43.863Z,6.35
2022-09-14T11:26:31.547Z,4.30
2022-09-14T11:29:04.295Z,5.40
2022-09-14T11:31:38.909Z,5.95
2022-09-14T11:34:14.219Z,3.70
2022-09-14T11:36:44.517Z,4.18
2022-09-14T11:39:17.941Z,2.28
2022-09-14T11:41:49.914Z,2.92
2022-09-14T11:44:22.521Z,3.20
2022-09-14T11:49:19.347Z,6.35
2022-09-14T11:51:56.748Z,4.75
2022-09-14T11:54:24.000Z,3.80
2022-09-14T11:56:51.985Z,4.97
2022-09-14T11:59:37.169Z,3.42
2022-09-14T12:02:22.349Z,3.85
2022-09-14T12:05:17.855Z,4.60
2022-09-14T12:07:46.854Z,7.18
2022-09-14T12:10:16.569Z,4.47
2022-09-14T12:12:43.810Z,4.25
2022-09-14T12:15:33.438Z,4.68
2022-09-14T12:18:02.665Z,3.10
2022-09-14T12:20:33.268Z,4.47
2022-09-14T12:23:18.146Z,4.35
2022-09-14T12:25:53.580Z,4.50
2022-09-14T12:28:40.123Z,4.80
2022-09-14T12:31:09.278Z,4.57
2022-09-14T12:33:41.258Z,4.82
2022-09-14T12:36:11.958Z,5.35
2022-09-14T12:38:38.369Z,4.47
2022-09-14T12:41:10.685Z,4.40
2022-09-14T12:43:37.309Z,5.85
2022-09-14T12:46:10.606Z,6.13
2022-09-14T12:48:45.935Z,4.93
2022-09-14T12:51:32.691Z,6.25
2022-09-14T12:53:59.301Z,5.50
2022-09-14T12:56:32.269Z,2.67
2022-09-14T12:59:05.006Z,4.97
2022-09-14T13:01:50.267Z,6.00
2022-09-14T13:04:20.760Z,4.55
2022-09-14T13:06:47.587Z,4.35
2022-09-14T13:09:21.336Z,4.70
2022-09-14T13:11:52.845Z,3.75
2022-09-14T13:14:19.683Z,5.25
2022-09-14T13:16:47.893Z,3.25
2022-09-14T13:19:20.249Z,5.93
2022-09-14T13:21:48.209Z,4.38
2022-09-14T13:24:28.662Z,5.13
2022-09-14T13:26:57.313Z,8.15
2022-09-14T13:29:26.503Z,5.63
2022-09-14T13:31:59.724Z,2.92
2022-09-14T13:34:31.349Z,4.60
2022-09-14T13:36:57.842Z,4.43
2022-09-14T13:39:30.153Z,6.00
2022-09-14T13:41:56.785Z,3.90
2022-09-14T13:44:26.161Z,6.13
2022-09-14T13:46:53.243Z,3.40
2022-09-14T13:49:20.664Z,5.45
2022-09-14T13:51:47.397Z,2.83
2022-09-14T13:54:40.001Z,5.85
2022-09-14T13:57:13.794Z,6.55
2022-09-14T13:59:59.346Z,3.72
2022-09-14T14:02:26.843Z,6.00
2022-09-14T14:04:53.175Z,4.82
2022-09-14T14:07:25.328Z,4.20
2022-09-14T14:09:53.776Z,4.72
2022-09-14T14:12:22.276Z,5.70
2022-09-14T14:14:55.613Z,5.68
2022-09-14T14:17:23.669Z,6.47
2022-09-14T14:19:50.832Z,6.15
2022-09-14T14:22:18.439Z,8.20
2022-09-14T14:25:11.739Z,4.50
2022-09-14T14:27:33.957Z,6.57
2022-09-14T14:30:01.485Z,6.40
2022-09-14T14:32:28.815Z,3.33
2022-09-14T14:34:55.405Z,7.00
2022-09-14T14:37:21.972Z,7.38
2022-09-14T14:39:49.773Z,5.50
2022-09-14T14:42:16.567Z,8.40
2022-09-14T14:44:43.658Z,7.03
2022-09-14T14:47:13.981Z,7.35
2022-09-14T14:49:40.449Z,6.43
2022-09-14T14:52:06.922Z,4.85
2022-09-14T14:54:33.290Z,6.80
2022-09-14T14:56:59.596Z,6.78
2022-09-14T14:59:27.386Z,4.95
2022-09-14T15:01:54.947Z,6.40
2022-09-14T15:04:21.794Z,8.00
2022-09-14T15:06:48.145Z,7.50
2022-09-14T15:09:23.201Z,13.38
2022-09-14T15:11:50.426Z,10.07
2022-09-14T15:14:18.291Z,7.90
2022-09-14T15:16:45.259Z,4.32
2022-09-14T15:19:11.604Z,8.90
2022-09-14T15:21:38.510Z,8.63
2022-09-14T15:24:05.927Z,8.73
2022-09-14T15:26:33.126Z,6.22
2022-09-14T15:28:59.782Z,8.18
2022-09-14T15:31:26.188Z,6.57
2022-09-14T15:33:52.789Z,7.45
2022-09-14T15:36:38.773Z,5.72
2022-09-14T15:39:06.302Z,6.97
2022-09-14T15:41:32.617Z,6.85
2022-09-14T15:43:59.080Z,6.28
2022-09-14T15:46:25.401Z,6.20
2022-09-14T15:48:51.749Z,7.10
2022-09-14T15:51:19.548Z,4.70
2022-09-14T15:53:46.337Z,5.60
2022-09-14T15:56:13.456Z,4.75
2022-09-14T15:58:39.821Z,7.65
2022-09-14T16:01:09.242Z,5.82
2022-09-14T16:03:35.679Z,5.22
2022-09-14T16:06:02.194Z,4.60
2022-09-14T16:08:28.586Z,7.28
2022-09-14T16:10:59.105Z,3.72
2022-09-14T16:13:25.552Z,4.05
2022-09-14T16:15:56.677Z,12.35
2022-09-14T16:18:25.784Z,4.97
2022-09-14T16:20:52.104Z,6.60
2022-09-14T16:23:18.420Z,8.05
2022-09-14T16:25:44.715Z,5.63
2022-09-14T16:28:11.120Z,6.00
2022-09-14T16:30:37.420Z,7.68
2022-09-14T16:33:03.786Z,6.57
2022-09-14T16:35:30.085Z,5.35
2022-09-14T16:37:56.460Z,5.00
2022-09-14T16:40:22.853Z,4.22
2022-09-14T16:42:51.142Z,5.93
2022-09-14T16:45:17.502Z,7.03
2022-09-14T16:47:44.524Z,6.05
2022-09-14T16:50:10.893Z,8.90
2022-09-14T16:52:37.321Z,5.57
2022-09-14T16:55:03.816Z,3.90
2022-09-14T16:57:30.174Z,6.57
2022-09-14T16:59:56.529Z,5.07
2022-09-14T17:02:23.064Z,3.90
2022-09-14T17:04:49.543Z,8.52
2022-09-14T17:07:15.974Z,7.75
2022-09-14T17:09:42.345Z,5.53
2022-09-14T17:12:08.744Z,4.00
2022-09-14T17:14:35.190Z,5.68
2022-09-14T17:17:04.910Z,5.30
2022-09-14T17:19:33.150Z,8.50
2022-09-14T17:21:59.700Z,5.20
2022-09-14T17:24:26.117Z,5.50
2022-09-14T17:26:52.524Z,4.55
2022-09-14T17:29:19.364Z,4.88
2022-09-14T17:31:46.159Z,4.50
2022-09-14T17:34:13.510Z,3.75
2022-09-14T17:36:39.929Z,5.40
2022-09-14T17:39:11.574Z,4.50
2022-09-14T17:41:38.974Z,4.78
2022-09-14T17:44:06.127Z,6.13
2022-09-14T17:46:32.734Z,5.95
2022-09-14T17:49:00.264Z,6.50
2022-09-14T17:51:28.771Z,5.70
2022-09-14T17:53:55.901Z,6.38
2022-09-14T17:56:23.168Z,5.22
2022-09-14T17:58:50.419Z,6.03
2022-09-14T18:01:23.376Z,8.07
2022-09-14T18:03:51.347Z,5.95
2022-09-14T18:06:18.428Z,9.13
2022-09-14T18:08:44.900Z,4.57
2022-09-14T18:11:13.014Z,5.25
2022-09-14T18:13:40.547Z,6.82
2022-09-14T18:16:07.001Z,5.38
2022-09-14T18:18:33.501Z,3.83
2022-09-14T18:21:00.585Z,7.93
2022-09-14T18:23:27.482Z,10.43
2022-09-14T18:25:54.291Z,33.10
2022-09-14T18:28:21.474Z,14.27
2022-09-14T18:30:47.855Z,10.02
2022-09-14T18:33:14.434Z,8.38
2022-09-14T18:35:40.873Z,6.85
2022-09-14T18:38:07.263Z,6.13
2022-09-14T18:40:34.439Z,7.82
2022-09-14T18:43:00.917Z,6.53
2022-09-14T18:45:28.940Z,7.63
2022-09-14T18:47:55.826Z,6.20
2022-09-14T18:50:23.161Z,8.48
2022-09-14T18:52:52.738Z,6.88
2022-09-14T18:55:20.292Z,7.78
2022-09-14T18:57:47.236Z,6.68
2022-09-14T19:00:18.220Z,9.07
2022-09-14T19:02:45.826Z,8.25
2022-09-14T19:05:12.448Z,6.68
2022-09-14T19:07:38.836Z,6.53
2022-09-14T19:10:09.736Z,6.32
2022-09-14T19:15:04.688Z,6.55
2022-09-14T19:17:31.169Z,10.13
2022-09-14T19:19:58.102Z,11.23
2022-09-14T19:22:24.846Z,10.98
2022-09-14T19:24:51.395Z,10.63
2022-09-14T19:27:17.837Z,10.82
2022-09-14T19:29:44.217Z,11.90
2022-09-14T19:32:10.586Z,10.45
2022-09-14T19:34:38.413Z,10.65
2022-09-14T19:37:05.201Z,8.48
2022-09-14T19:39:31.721Z,9.73
2022-09-14T19:41:58.241Z,12.70
2022-09-14T19:44:24.629Z,11.75
2022-09-14T19:46:51.235Z,10.48
2022-09-14T19:49:19.489Z,10.30
2022-09-14T19:51:46.254Z,16.23
2022-09-14T19:54:12.696Z,14.48
2022-09-14T19:56:39.097Z,14.30
2022-09-14T19:59:07.184Z,15.02
2022-09-14T20:01:35.585Z,14.20
2022-09-14T20:04:02.523Z,14.65
2022-09-14T20:06:31.561Z,14.15
2022-09-14T20:08:59.698Z,15.70
2022-09-14T20:11:26.941Z,17.48
2022-09-14T20:13:54.556Z,14.52
2022-09-14T20:16:25.655Z,17.00
2022-09-14T20:18:52.380Z,15.05
2022-09-14T20:21:23.166Z,16.38
2022-09-14T20:24:16.311Z,14.52
2022-09-14T20:26:43.396Z,15.13
2022-09-14T20:29:09.717Z,15.80
2022-09-14T20:31:36.106Z,17.45
2022-09-14T20:34:02.465Z,20.05
2022-09-14T20:36:28.778Z,15.35
2022-09-14T20:38:56.244Z,14.95
2022-09-14T20:41:23.598Z,21.77
2022-09-14T20:43:50.362Z,17.08
2022-09-14T20:46:18.388Z,17.48
2022-09-14T20:48:44.783Z,17.50
2022-09-14T20:51:11.303Z,16.27
2022-09-14T20:53:39.201Z,19.42
2022-09-14T20:56:06.799Z,17.67
2022-09-14T20:58:33.434Z,18.00
2022-09-14T21:01:04.173Z,18.52
2022-09-14T21:03:31.236Z,16.55
2022-09-14T21:06:01.457Z,16.40
2022-09-14T21:08:28.693Z,16.08
2022-09-14T21:10:55.025Z,18.17
2022-09-14T21:13:21.598Z,19.65
2022-09-14T21:15:48.723Z,23.10
2022-09-14T21:18:19.971Z,20.80
2022-09-14T21:20:47.135Z,18.05
2022-09-14T21:23:13.645Z,26.35
2022-09-14T21:25:40.016Z,22.85
2022-09-14T21:28:07.427Z,24.60
2022-09-14T21:30:33.749Z,22.02
2022-09-14T21:33:00.249Z,25.45
2022-09-14T21:35:30.298Z,22.17
2022-09-14T21:37:59.414Z,20.80
2022-09-14T21:40:25.801Z,21.02
2022-09-14T21:42:53.879Z,16.73
2022-09-14T21:45:20.242Z,18.27
2022-09-14T21:47:46.677Z,15.60
2022-09-14T21:50:13.008Z,14.13
2022-09-14T21:52:43.943Z,13.52
2022-09-14T21:55:10.728Z,13.05
2022-09-14T21:57:37.114Z,15.02
2022-09-14T22:00:05.595Z,14.75
2022-09-14T22:02:34.382Z,16.15
2022-09-14T22:05:00.920Z,13.95
2022-09-14T22:07:28.980Z,16.38
2022-09-14T22:09:55.330Z,14.93
2022-09-14T22:12:21.773Z,15.10
2022-09-14T22:14:48.146Z,15.10
2022-09-14T22:17:14.686Z,14.93
2022-09-14T22:19:41.761Z,12.93
2022-09-14T22:22:08.164Z,14.15
2022-09-14T22:24:38.146Z,14.90
2022-09-14T22:27:08.979Z,14.07
2022-09-14T22:29:35.354Z,13.82
2022-09-14T22:32:01.853Z,16.17
2022-09-14T22:34:28.767Z,15.82
2022-09-14T22:36:55.089Z,17.17
2022-09-14T22:39:21.531Z,20.17
2022-09-14T22:41:47.904Z,14.98
2022-09-14T22:44:14.314Z,13.95
2022-09-14T22:46:42.024Z,13.68
2022-09-14T22:49:08.870Z,14.88
2022-09-14T22:51:35.290Z,15.13
2022-09-14T22:54:02.130Z,15.32
2022-09-14T22:56:32.937Z,14.48
2022-09-14T22:59:00.485Z,17.08
2022-09-14T23:01:28.321Z,18.17
2022-09-14T23:03:57.054Z,14.98
2022-09-14T23:06:27.343Z,13.82
2022-09-14T23:08:53.836Z,15.65
2022-09-14T23:11:20.253Z,15.52
2022-09-14T23:13:47.077Z,15.60
2022-09-14T23:16:17.713Z,16.45
2022-09-14T23:18:44.751Z,19.58
2022-09-14T23:21:11.550Z,16.10
2022-09-14T23:23:40.989Z,15.23
2022-09-14T23:26:08.608Z,14.70
2022-09-14T23:28:35.445Z,19.90
2022-09-14T23:31:02.248Z,15.30
2022-09-14T23:33:29.152Z,15.27
2022-09-14T23:35:55.673Z,18.38
2022-09-14T23:38:22.427Z,17.23
2022-09-14T23:40:49.848Z,16.33
2022-09-14T23:43:17.108Z,14.00
2022-09-14T23:45:44.454Z,13.80
2022-09-14T23:48:11.101Z,14.85
2022-09-14T23:50:38.432Z,22.35
2022-09-14T23:53:05.781Z,14.68
2022-09-14T23:55:32.610Z,11.40
2022-09-14T23:57:59.285Z,11.90
